Time;durP1;ratioP1;P1;durP2;ratioP2;P2;SDS_P1;SDS_P2;PMS_P1;PMS_P2;Temp;Humidity;BMP_temperature;BMP_pressure;BME280_temperature;BME280_humidity;BME280_pressure;Samples;Min_cycle;Max_cycle;Signal;HPM_P1;HPM_P2
2020/12/14 00:02:11;;;;;;;5.23;2.60;;;8.70;99.90;;;;;;5115146;28;20177;-80
2020/12/14 00:04:37;;;;;;;7.20;2.87;;;8.70;99.90;;;;;;5116602;28;20242;-80
2020/12/14 00:07:04;;;;;;;6.80;3.13;;;8.70;99.90;;;;;;5116891;28;20193;-80
2020/12/14 00:09:31;;;;;;;9.73;3.17;;;8.70;99.90;;;;;;5115212;28;20219;-80
2020/12/14 00:12:00;;;;;;;4.57;2.47;;;8.80;99.90;;;;;;5114771;28;20553;-80
2020/12/14 00:14:26;;;;;;;6.33;2.97;;;8.80;99.90;;;;;;5115514;28;20210;-79
2020/12/14 00:16:51;;;;;;;4.83;3.17;;;8.80;99.90;;;;;;5098438;28;20228;-80
2020/12/14 00:19:17;;;;;;;6.37;3.17;;;8.80;99.90;;;;;;5115013;28;20205;-80
2020/12/14 00:21:42;;;;;;;6.13;3.10;;;8.80;99.90;;;;;;5098342;28;20178;-80
2020/12/14 00:24:08;;;;;;;5.73;2.90;;;8.80;99.90;;;;;;5115128;28;20180;-80
2020/12/14 00:26:33;;;;;;;6.70;3.00;;;8.80;99.90;;;;;;5116187;28;20650;-80
2020/12/14 00:28:59;;;;;;;6.83;2.77;;;8.80;99.90;;;;;;5098009;28;20284;-80
2020/12/14 00:31:25;;;;;;;5.63;2.87;;;8.80;99.90;;;;;;5115089;28;20185;-80
2020/12/14 00:33:50;;;;;;;7.43;3.00;;;8.80;99.90;;;;;;5115084;28;20189;-79
2020/12/14 00:36:16;;;;;;;5.60;2.87;;;8.80;99.90;;;;;;5115965;28;20215;-80
2020/12/14 00:38:42;;;;;;;4.57;2.70;;;8.90;99.90;;;;;;5097691;28;20250;-80
2020/12/14 00:41:15;;;;;;;8.57;3.20;;;8.90;99.90;;;;;;5116129;28;20174;-80
2020/12/14 00:43:42;;;;;;;6.57;2.73;;;8.80;99.90;;;;;;5115881;28;20256;-80
2020/12/14 00:46:14;;;;;;;7.83;3.10;;;8.80;99.90;;;;;;5116136;28;20239;-80
2020/12/14 00:48:40;;;;;;;5.67;2.50;;;8.80;99.90;;;;;;5116052;28;20530;-80
2020/12/14 00:51:06;;;;;;;5.50;2.83;;;8.70;99.90;;;;;;5115632;28;20192;-80
2020/12/14 00:53:33;;;;;;;5.13;2.80;;;8.70;99.90;;;;;;5115813;28;20196;-80
2020/12/14 00:56:03;;;;;;;7.70;3.07;;;8.80;99.90;;;;;;5114097;28;20188;-80
2020/12/14 00:58:28;;;;;;;5.27;2.73;;;8.80;99.90;;;;;;5113893;28;20184;-81
2020/12/14 01:00:55;;;;;;;8.13;3.53;;;8.80;99.90;;;;;;5115731;28;20174;-80
2020/12/14 01:03:20;;;;;;;5.80;3.20;;;8.70;99.90;;;;;;5115775;28;20187;-80
2020/12/14 01:05:46;;;;;;;6.73;3.40;;;8.70;99.90;;;;;;5114247;28;20287;-80
2020/12/14 01:08:12;;;;;;;4.87;3.00;;;8.80;99.90;;;;;;5115722;28;20213;-79
2020/12/14 01:10:37;;;;;;;5.73;2.83;;;8.70;99.90;;;;;;5113998;28;20177;-80
2020/12/14 01:13:03;;;;;;;10.23;3.63;;;8.70;99.90;;;;;;5114370;28;20170;-80
2020/12/14 01:15:28;;;;;;;3.87;3.10;;;8.70;99.90;;;;;;5114321;28;20172;-80
2020/12/14 01:17:54;;;;;;;5.63;3.17;;;8.70;99.90;;;;;;5114413;28;20181;-80
2020/12/14 01:20:20;;;;;;;3.90;3.20;;;8.70;99.90;;;;;;5115524;28;20204;-80
2020/12/14 01:22:45;;;;;;;4.70;3.10;;;8.70;99.90;;;;;;5096756;28;20196;-79
2020/12/14 01:25:11;;;;;;;4.27;2.87;;;8.70;99.90;;;;;;5079938;28;20652;-80
2020/12/14 01:27:37;;;;;;;4.37;3.20;;;8.80;99.90;;;;;;5113881;28;20197;-80
2020/12/14 01:30:03;;;;;;;5.40;2.97;;;8.80;99.90;;;;;;5113956;28;20216;-80
2020/12/14 01:32:28;;;;;;;4.90;3.20;;;8.90;99.90;;;;;;5113970;28;20176;-79
2020/12/14 01:34:54;;;;;;;6.87;3.80;;;8.90;99.90;;;;;;5113837;28;20185;-80
2020/12/14 01:37:19;;;;;;;4.80;2.90;;;9.00;99.90;;;;;;5106826;28;20190;-80
2020/12/14 01:39:45;;;;;;;8.10;3.20;;;8.90;99.90;;;;;;5093516;28;20258;-80
2020/12/14 01:42:11;;;;;;;4.20;3.20;;;8.90;99.90;;;;;;5093194;28;20174;-80
2020/12/14 01:44:36;;;;;;;6.43;3.50;;;8.90;99.90;;;;;;5103311;28;20174;-80
2020/12/14 01:47:02;;;;;;;6.57;3.47;;;8.90;99.90;;;;;;5113901;28;20553;-81
2020/12/14 01:49:29;;;;;;;7.20;3.30;;;8.90;99.90;;;;;;5113635;28;20633;-80
2020/12/14 01:51:55;;;;;;;7.23;3.00;;;9.00;99.90;;;;;;5093454;28;20231;-79
2020/12/14 01:54:26;;;;;;;5.27;3.40;;;9.00;99.90;;;;;;5093040;28;20300;-80
2020/12/14 01:56:52;;;;;;;6.70;3.20;;;9.00;99.90;;;;;;5109947;28;20192;-80
2020/12/14 01:59:18;;;;;;;6.70;3.40;;;9.00;99.90;;;;;;5113709;28;20201;-80
2020/12/14 02:01:43;;;;;;;5.73;3.13;;;9.00;99.90;;;;;;5114711;28;20173;-80
2020/12/14 02:04:09;;;;;;;8.13;3.50;;;9.00;99.90;;;;;;5096294;28;20207;-80
2020/12/14 02:06:35;;;;;;;6.90;3.10;;;8.90;99.90;;;;;;5114059;28;20203;-80
2020/12/14 02:09:00;;;;;;;6.97;3.50;;;9.00;99.90;;;;;;5114467;28;20238;-80
2020/12/14 02:11:26;;;;;;;7.90;3.63;;;9.00;99.90;;;;;;5114349;28;20180;-79
2020/12/14 02:13:52;;;;;;;5.43;3.23;;;9.00;99.90;;;;;;5093043;28;20231;-79
2020/12/14 02:16:17;;;;;;;7.63;4.10;;;9.10;99.90;;;;;;5092707;28;20273;-79
2020/12/14 02:18:43;;;;;;;9.20;3.97;;;9.10;99.90;;;;;;5100807;28;20232;-80
2020/12/14 02:21:12;;;;;;;5.67;3.90;;;9.00;99.90;;;;;;5113252;28;20192;-80
2020/12/14 02:23:38;;;;;;;8.90;3.73;;;9.00;99.90;;;;;;5076287;28;20199;-80
2020/12/14 02:26:04;;;;;;;8.10;4.23;;;9.00;99.90;;;;;;5092773;28;20181;-80
2020/12/14 02:28:29;;;;;;;5.53;4.00;;;9.10;99.90;;;;;;5100627;28;20196;-79
2020/12/14 02:30:55;;;;;;;6.40;3.60;;;9.00;99.90;;;;;;5095770;28;20288;-80
2020/12/14 02:33:20;;;;;;;7.67;4.10;;;9.00;99.90;;;;;;5075714;28;20198;-80
2020/12/14 02:35:46;;;;;;;6.90;4.57;;;9.00;99.90;;;;;;5103058;28;21003;-80
2020/12/14 02:38:12;;;;;;;8.13;4.40;;;8.90;99.90;;;;;;5113740;28;20571;-80
2020/12/14 02:40:38;;;;;;;5.33;3.90;;;8.90;99.90;;;;;;5112632;28;20740;-80
2020/12/14 02:43:03;;;;;;;6.90;3.67;;;8.90;99.90;;;;;;5113782;28;20181;-80
2020/12/14 02:45:29;;;;;;;8.17;4.17;;;9.00;99.90;;;;;;5113881;28;20173;-80
2020/12/14 02:47:55;;;;;;;9.03;4.07;;;8.90;99.90;;;;;;5113976;28;20180;-80
2020/12/14 02:50:20;;;;;;;6.63;3.50;;;8.90;99.90;;;;;;5095320;28;20185;-80
2020/12/14 02:52:46;;;;;;;8.00;3.47;;;8.90;99.90;;;;;;5095215;28;20217;-80
2020/12/14 02:55:11;;;;;;;5.27;3.67;;;8.90;99.90;;;;;;5112260;28;20195;-80
2020/12/14 02:57:37;;;;;;;6.27;4.07;;;8.90;99.90;;;;;;5112521;28;20242;-80
2020/12/14 03:00:04;;;;;;;9.03;4.13;;;8.90;99.90;;;;;;5112474;28;20236;-80
2020/12/14 03:02:30;;;;;;;5.30;3.83;;;8.90;99.90;;;;;;5113535;28;20220;-80
2020/12/14 03:04:55;;;;;;;5.37;3.70;;;8.90;99.90;;;;;;5112115;28;20255;-80
2020/12/14 03:07:21;;;;;;;7.97;3.50;;;9.00;99.90;;;;;;5112324;28;20173;-80
2020/12/14 03:09:47;;;;;;;6.10;4.00;;;9.00;99.90;;;;;;5113575;28;20226;-80
2020/12/14 03:12:12;;;;;;;4.90;3.50;;;9.10;99.90;;;;;;5113482;28;20200;-80
2020/12/14 03:14:38;;;;;;;4.60;3.90;;;9.10;99.90;;;;;;5113578;28;20189;-80
2020/12/14 03:17:03;;;;;;;5.00;3.90;;;9.10;99.90;;;;;;5112425;28;20188;-80
2020/12/14 03:19:29;;;;;;;7.03;4.23;;;9.00;99.90;;;;;;5112351;28;20209;-80
2020/12/14 03:25:16;;;;;;;5.73;3.97;;;9.10;99.90;;;;;;5117574;28;20589;-80
2020/12/14 03:27:43;;;;;;;6.07;4.23;;;9.10;99.90;;;;;;5099060;28;20194;-80
2020/12/14 03:30:10;;;;;;;6.53;4.00;;;9.10;99.90;;;;;;5099642;28;20641;-80
2020/12/14 03:32:35;;;;;;;6.97;3.90;;;9.10;99.90;;;;;;5117233;28;20656;-81
2020/12/14 03:35:01;;;;;;;8.00;4.37;;;9.10;99.90;;;;;;5117103;28;20209;-80
2020/12/14 03:37:27;;;;;;;6.37;4.30;;;9.10;99.90;;;;;;5117588;28;20186;-80
2020/12/14 03:39:53;;;;;;;5.80;4.03;;;9.20;99.90;;;;;;5117264;28;20228;-81
2020/12/14 03:42:19;;;;;;;7.47;4.17;;;9.30;99.90;;;;;;5099132;28;20177;-80
2020/12/14 03:44:45;;;;;;;7.30;3.73;;;9.30;99.90;;;;;;5116195;28;20175;-80
2020/12/14 03:47:10;;;;;;;12.33;4.07;;;9.20;99.90;;;;;;5098864;28;20226;-80
2020/12/14 03:49:36;;;;;;;7.13;4.20;;;9.30;99.90;;;;;;5117139;28;20174;-80
2020/12/14 03:52:02;;;;;;;7.20;4.00;;;9.30;99.90;;;;;;5116611;28;20185;-79
2020/12/14 03:54:27;;;;;;;6.60;4.10;;;9.30;99.90;;;;;;5095296;28;20770;-80
2020/12/14 03:56:56;;;;;;;5.40;4.03;;;9.30;99.90;;;;;;5101150;28;20182;-80
2020/12/14 03:59:22;;;;;;;6.77;4.10;;;9.40;99.90;;;;;;5116991;28;20194;-80
2020/12/14 04:01:47;;;;;;;6.87;4.30;;;9.40;99.90;;;;;;5115133;28;20329;-80
2020/12/14 04:04:13;;;;;;;8.03;4.30;;;9.40;99.90;;;;;;5097753;28;20208;-80
2020/12/14 04:06:38;;;;;;;8.27;4.93;;;9.40;99.90;;;;;;5098157;28;20188;-80
2020/12/14 04:09:04;;;;;;;7.30;4.40;;;9.40;99.90;;;;;;5116163;28;20287;-80
2020/12/14 04:11:30;;;;;;;5.77;4.50;;;9.50;99.90;;;;;;5095283;28;20186;-80
2020/12/14 04:13:55;;;;;;;7.33;4.17;;;9.40;99.90;;;;;;5115017;28;20192;-80
2020/12/14 04:16:21;;;;;;;9.33;4.83;;;9.40;99.90;;;;;;5114342;28;20675;-80
2020/12/14 04:18:49;;;;;;;5.43;3.80;;;9.40;99.90;;;;;;5115333;28;20220;-80
2020/12/14 04:21:17;;;;;;;6.63;3.77;;;9.50;99.90;;;;;;5115483;28;20165;-80
2020/12/14 04:23:42;;;;;;;10.20;4.00;;;9.50;99.90;;;;;;5114422;28;20197;-80
2020/12/14 04:26:08;;;;;;;8.53;4.00;;;9.50;99.90;;;;;;5102432;28;20205;-80
2020/12/14 04:28:34;;;;;;;8.13;4.07;;;9.50;99.90;;;;;;5114884;28;20196;-80
2020/12/14 04:31:00;;;;;;;7.27;4.00;;;9.50;99.90;;;;;;5097230;28;20181;-80
2020/12/14 04:33:27;;;;;;;5.23;3.50;;;9.60;99.90;;;;;;5097112;28;20198;-78
2020/12/14 04:35:52;;;;;;;6.40;4.37;;;9.60;99.90;;;;;;5111549;28;20231;-78
2020/12/14 04:38:18;;;;;;;8.17;4.83;;;9.60;99.90;;;;;;5094549;28;20620;-78
2020/12/14 04:40:43;;;;;;;6.57;4.07;;;9.60;99.90;;;;;;5113164;28;20192;-77
2020/12/14 04:43:09;;;;;;;6.63;4.17;;;9.60;99.90;;;;;;5115273;28;20212;-78
2020/12/14 04:45:36;;;;;;;7.40;4.10;;;9.60;99.90;;;;;;5116014;28;20173;-78
2020/12/14 04:48:02;;;;;;;5.53;3.50;;;9.70;99.90;;;;;;5094151;28;20178;-78
2020/12/14 04:50:27;;;;;;;6.70;3.87;;;9.70;99.90;;;;;;5082972;28;20195;-80
2020/12/14 04:52:54;;;;;;;8.80;3.57;;;9.70;99.90;;;;;;5115147;28;20174;-80
2020/12/14 04:55:24;;;;;;;5.60;3.83;;;9.80;99.90;;;;;;5116314;28;20177;-80
2020/12/14 04:57:51;;;;;;;5.43;3.20;;;9.80;99.90;;;;;;5114165;28;20703;-80
2020/12/14 05:00:18;;;;;;;5.83;3.70;;;9.90;99.90;;;;;;5114303;28;20335;-80
2020/12/14 05:02:44;;;;;;;5.57;3.20;;;9.90;99.90;;;;;;5115451;28;20222;-80
2020/12/14 05:05:11;;;;;;;6.03;3.50;;;9.90;99.90;;;;;;5114433;28;20260;-80
2020/12/14 05:07:41;;;;;;;6.10;3.07;;;9.90;99.90;;;;;;5115980;28;20197;-80
2020/12/14 05:10:07;;;;;;;4.37;2.80;;;10.00;99.90;;;;;;5114124;28;20238;-80
2020/12/14 05:12:45;;;;;;;4.83;3.07;;;10.00;99.90;;;;;;5111158;28;20649;-80
2020/12/14 05:15:31;;;;;;;5.87;3.40;;;10.10;99.90;;;;;;5113954;28;20551;-80
2020/12/14 05:18:09;;;;;;;2.90;2.40;;;10.10;99.90;;;;;;5114035;28;20189;-80
2020/12/14 05:20:35;;;;;;;4.30;2.83;;;10.10;99.90;;;;;;5095157;28;20202;-80
2020/12/14 05:23:11;;;;;;;3.73;2.87;;;10.10;99.90;;;;;;5076851;28;20626;-80
2020/12/14 05:25:37;;;;;;;3.67;2.47;;;10.10;99.90;;;;;;5115226;28;20192;-80
2020/12/14 05:28:07;;;;;;;3.67;2.57;;;10.10;99.90;;;;;;5114441;28;20214;-80
2020/12/14 05:30:51;;;;;;;3.87;2.43;;;10.00;99.90;;;;;;5095605;28;20181;-80
2020/12/14 05:33:22;;;;;;;6.17;2.60;;;10.00;99.90;;;;;;5110734;28;20190;-80
2020/12/14 05:35:48;;;;;;;3.40;2.50;;;10.00;99.90;;;;;;5110653;28;20181;-80
2020/12/14 05:38:16;;;;;;;2.67;2.37;;;10.00;99.90;;;;;;5093491;28;20190;-80
2020/12/14 05:40:44;;;;;;;3.77;2.77;;;10.00;99.90;;;;;;5094594;28;20201;-80
2020/12/14 05:43:14;;;;;;;4.70;2.50;;;9.90;99.90;;;;;;5112589;28;20197;-80
2020/12/14 05:45:41;;;;;;;4.17;2.40;;;9.90;99.90;;;;;;5114522;28;20626;-79
2020/12/14 05:48:34;;;;;;;6.73;2.50;;;10.00;99.90;;;;;;5114824;28;20528;-79
2020/12/14 05:51:01;;;;;;;3.87;2.47;;;10.10;99.90;;;;;;5114905;28;20154;-80
2020/12/14 05:53:35;;;;;;;2.60;2.40;;;10.10;99.90;;;;;;5113478;28;20231;-79
2020/12/14 05:56:02;;;;;;;3.93;2.80;;;10.10;99.90;;;;;;5114580;28;20241;-79
2020/12/14 05:58:30;;;;;;;3.53;2.30;;;10.10;99.90;;;;;;5108295;28;20540;-77
2020/12/14 06:00:56;;;;;;;3.43;2.40;;;10.00;99.90;;;;;;5114416;28;20201;-77
2020/12/14 06:03:25;;;;;;;4.00;2.70;;;10.10;99.90;;;;;;5114797;28;20200;-77
2020/12/14 06:05:59;;;;;;;6.33;2.80;;;10.20;99.90;;;;;;5114769;28;20268;-77
2020/12/14 06:08:43;;;;;;;3.63;2.60;;;10.20;99.90;;;;;;5114367;28;20518;-77
2020/12/14 06:11:09;;;;;;;2.30;2.10;;;10.20;99.90;;;;;;5113224;28;20585;-77
2020/12/14 06:13:45;;;;;;;4.23;2.43;;;10.10;99.90;;;;;;5114327;28;20227;-77
2020/12/14 06:16:17;;;;;;;3.43;2.50;;;10.10;99.90;;;;;;5114616;28;20157;-76
2020/12/14 06:18:45;;;;;;;5.30;2.67;;;10.10;99.90;;;;;;5114475;28;20293;-76
2020/12/14 06:21:18;;;;;;;3.60;2.70;;;10.10;99.90;;;;;;5113439;28;20177;-77
2020/12/14 06:23:45;;;;;;;3.83;2.53;;;10.00;99.90;;;;;;5114116;28;20150;-76
2020/12/14 06:26:12;;;;;;;7.10;3.03;;;10.00;99.90;;;;;;5112575;28;20238;-77
2020/12/14 06:28:38;;;;;;;3.93;2.77;;;9.90;99.90;;;;;;5112562;28;20197;-77
2020/12/14 06:31:03;;;;;;;4.07;2.50;;;10.00;99.90;;;;;;5112256;28;20182;-77
2020/12/14 06:33:33;;;;;;;3.07;2.57;;;10.00;99.90;;;;;;5114182;28;20182;-76
2020/12/14 06:36:21;;;;;;;3.40;2.60;;;9.90;99.90;;;;;;5114135;28;20511;-77
2020/12/14 06:38:48;;;;;;;3.77;2.30;;;10.00;99.90;;;;;;5114214;28;20201;-77
2020/12/14 06:41:20;;;;;;;2.70;2.00;;;10.00;99.90;;;;;;5112315;28;20174;-77
2020/12/14 06:43:49;;;;;;;2.10;2.00;;;10.10;99.90;;;;;;5107901;28;20182;-78
2020/12/14 06:46:26;;;;;;;3.30;2.20;;;10.10;99.90;;;;;;5123722;28;20170;-78
2020/12/14 06:48:53;;;;;;;2.20;2.00;;;10.10;99.90;;;;;;5114115;28;20678;-77
2020/12/14 06:51:19;;;;;;;2.40;2.20;;;10.10;99.90;;;;;;5113725;28;20162;-78
2020/12/14 06:53:54;;;;;;;3.50;1.87;;;10.10;99.90;;;;;;5114054;28;20177;-77
2020/12/14 06:56:43;;;;;;;1.80;1.70;;;10.20;99.90;;;;;;5095505;28;20182;-78
2020/12/14 06:59:36;;;;;;;2.23;2.00;;;10.20;99.90;;;;;;5100103;28;20569;-77
2020/12/14 07:02:04;;;;;;;2.00;1.80;;;10.10;99.90;;;;;;5101346;28;20318;-77
2020/12/14 07:04:29;;;;;;;2.03;1.73;;;10.20;99.90;;;;;;5113536;28;20177;-77
2020/12/14 07:06:56;;;;;;;2.07;1.97;;;10.20;99.90;;;;;;5111344;28;20190;-77
2020/12/14 07:09:32;;;;;;;2.07;1.87;;;10.20;99.90;;;;;;5112582;28;20626;-77
2020/12/14 07:12:10;;;;;;;2.20;2.00;;;10.20;99.90;;;;;;5113365;28;20173;-78
2020/12/14 07:14:44;;;;;;;2.20;1.90;;;10.20;99.90;;;;;;5113402;28;20293;-77
2020/12/14 07:17:20;;;;;;;2.30;2.10;;;10.30;99.90;;;;;;5112596;28;20653;-77
2020/12/14 07:19:47;;;;;;;2.53;2.30;;;10.20;99.90;;;;;;5091635;28;20296;-77
2020/12/14 07:22:48;;;;;;;5.37;2.50;;;10.30;99.90;;;;;;5105536;28;20174;-82
2020/12/14 07:25:22;;;;;;;4.87;2.37;;;10.40;99.90;;;;;;5078526;28;20178;-83
2020/12/14 07:27:48;;;;;;;3.73;2.10;;;10.50;99.90;;;;;;5092132;28;20186;-83
2020/12/14 07:30:14;;;;;;;3.93;2.43;;;10.50;99.90;;;;;;5091575;28;20206;-82
2020/12/14 07:32:40;;;;;;;3.97;2.27;;;10.40;99.90;;;;;;5091767;28;20181;-83
2020/12/14 07:35:08;;;;;;;2.63;2.30;;;10.40;99.90;;;;;;5105524;28;20685;-84
2020/12/14 07:37:35;;;;;;;3.20;2.40;;;10.30;99.90;;;;;;5111818;28;20594;-84
2020/12/14 07:40:01;;;;;;;2.93;2.70;;;10.30;99.90;;;;;;5078692;28;20339;-84
2020/12/14 07:42:28;;;;;;;4.40;2.50;;;10.10;99.90;;;;;;5095796;28;20293;-83
2020/12/14 07:45:13;;;;;;;4.83;2.50;;;10.10;99.90;;;;;;5092434;28;20267;-84
2020/12/14 07:47:43;;;;;;;2.90;2.70;;;10.20;99.90;;;;;;5113322;28;20543;-83
2020/12/14 07:50:16;;;;;;;3.67;3.00;;;10.10;99.90;;;;;;5113238;28;20583;-85
2020/12/14 07:52:43;;;;;;;3.43;2.93;;;10.10;99.90;;;;;;5112868;28;20195;-84
2020/12/14 07:55:13;;;;;;;4.33;3.27;;;10.10;99.90;;;;;;5110943;28;20185;-84
2020/12/14 07:57:40;;;;;;;3.57;3.23;;;10.10;99.90;;;;;;5111152;28;20554;-83
2020/12/14 08:00:08;;;;;;;5.23;3.80;;;10.10;99.90;;;;;;5111377;28;20205;-86
2020/12/14 08:02:34;;;;;;;3.97;3.23;;;10.10;99.90;;;;;;5111562;28;20166;-86
2020/12/14 08:05:02;;;;;;;5.40;3.90;;;10.10;99.90;;;;;;5108936;28;20177;-86
2020/12/14 08:07:34;;;;;;;4.50;3.60;;;10.10;99.90;;;;;;5097144;28;20185;-86
2020/12/14 08:10:01;;;;;;;5.43;3.70;;;10.00;99.90;;;;;;5115064;28;20630;-87
2020/12/14 08:12:27;;;;;;;5.30;3.60;;;10.10;99.90;;;;;;5097860;28;20181;-85
2020/12/14 08:14:53;;;;;;;4.70;3.97;;;10.20;99.90;;;;;;5115114;28;20660;-86
2020/12/14 08:17:18;;;;;;;4.30;3.70;;;10.20;99.90;;;;;;5097800;28;20181;-86
2020/12/14 08:19:45;;;;;;;5.10;3.53;;;10.10;99.90;;;;;;5097812;28;20201;-87
2020/12/14 08:22:14;;;;;;;4.03;3.43;;;10.10;99.90;;;;;;5114887;28;20178;-88
2020/12/14 08:24:42;;;;;;;4.83;3.83;;;10.10;99.90;;;;;;5114757;28;20170;-88
2020/12/14 08:27:13;;;;;;;3.47;2.57;;;10.10;99.90;;;;;;5114701;28;20173;-87
2020/12/14 08:30:07;;;;;;;3.07;2.80;;;10.20;99.90;;;;;;5115502;28;20536;-87
2020/12/14 08:32:33;;;;;;;5.33;3.20;;;10.10;99.90;;;;;;5107782;28;20190;-86
2020/12/14 08:34:59;;;;;;;3.07;2.77;;;10.10;99.90;;;;;;5097666;28;20661;-87
2020/12/14 08:37:25;;;;;;;4.60;3.07;;;10.10;99.90;;;;;;5114373;28;20254;-86
2020/12/14 08:40:01;;;;;;;3.30;3.00;;;10.20;99.90;;;;;;5114465;28;20255;-87
2020/12/14 08:42:30;;;;;;;3.43;2.93;;;10.20;99.90;;;;;;5114064;28;20184;-86
2020/12/14 08:45:11;;;;;;;3.37;2.97;;;10.40;99.90;;;;;;5115685;28;20166;-86
2020/12/14 08:47:38;;;;;;;3.77;2.83;;;10.40;99.90;;;;;;5110486;28;20180;-88
2020/12/14 08:50:09;;;;;;;5.07;2.90;;;10.30;99.90;;;;;;5076943;28;20696;-87
2020/12/14 08:52:34;;;;;;;4.27;2.57;;;10.30;99.90;;;;;;5098102;28;20170;-86
2020/12/14 08:55:00;;;;;;;3.03;2.80;;;10.40;99.90;;;;;;5093739;28;20521;-86
2020/12/14 08:57:28;;;;;;;3.20;2.67;;;10.50;99.90;;;;;;5076845;28;20650;-87
2020/12/14 09:00:15;;;;;;;4.23;3.00;;;10.40;99.90;;;;;;5094855;28;20198;-87
2020/12/14 09:02:40;;;;;;;3.53;3.20;;;10.50;99.90;;;;;;5100907;28;20211;-87
2020/12/14 09:05:18;;;;;;;4.43;3.27;;;10.50;99.90;;;;;;5096736;28;20169;-86
2020/12/14 09:07:44;;;;;;;6.67;3.13;;;10.40;99.90;;;;;;5113477;28;20181;-86
2020/12/14 09:10:17;;;;;;;5.53;3.20;;;10.50;99.90;;;;;;5115039;28;20246;-88
2020/12/14 09:12:43;;;;;;;3.53;3.17;;;10.50;99.90;;;;;;5115042;28;20161;-87
2020/12/14 09:15:09;;;;;;;7.50;3.07;;;10.60;99.90;;;;;;5096509;28;20181;-87
2020/12/14 09:17:34;;;;;;;5.27;3.47;;;10.60;99.90;;;;;;5096183;28;20185;-86
2020/12/14 09:20:01;;;;;;;5.30;3.30;;;10.70;99.90;;;;;;5096435;28;20209;-87
2020/12/14 09:22:27;;;;;;;4.53;3.10;;;10.80;99.90;;;;;;5096717;28;20182;-84
2020/12/14 09:24:53;;;;;;;5.03;3.00;;;10.80;99.90;;;;;;5092803;28;20269;-85
2020/12/14 09:27:20;;;;;;;5.47;3.00;;;11.00;99.90;;;;;;5078428;28;20189;-85
2020/12/14 09:29:46;;;;;;;4.20;2.87;;;10.90;99.90;;;;;;5114680;28;20174;-87
2020/12/14 09:32:12;;;;;;;3.97;3.57;;;10.90;99.90;;;;;;5096558;28;20181;-86
2020/12/14 09:34:40;;;;;;;5.83;2.80;;;11.00;99.90;;;;;;5114025;28;20177;-87
2020/12/14 09:37:06;;;;;;;5.30;3.20;;;11.20;99.90;;;;;;5113191;28;20781;-87
2020/12/14 09:39:33;;;;;;;5.20;2.90;;;11.80;99.90;;;;;;5114427;28;20197;-87
2020/12/14 09:41:59;;;;;;;3.47;2.67;;;12.10;99.90;;;;;;5091396;28;20170;-87
2020/12/14 09:44:26;;;;;;;4.83;2.50;;;12.00;99.90;;;;;;5075813;28;20658;-86
2020/12/14 09:46:52;;;;;;;4.83;2.87;;;12.00;99.90;;;;;;5078261;28;20647;-86
2020/12/14 09:49:19;;;;;;;4.97;2.30;;;11.90;99.90;;;;;;5114328;28;20170;-87
2020/12/14 09:51:44;;;;;;;5.27;2.97;;;11.90;99.90;;;;;;5092322;28;20220;-87
2020/12/14 09:54:10;;;;;;;4.33;2.87;;;12.00;99.90;;;;;;5092947;28;20174;-87
2020/12/14 09:56:36;;;;;;;5.73;2.53;;;11.70;99.90;;;;;;5112811;28;20668;-86
2020/12/14 09:59:03;;;;;;;5.50;2.83;;;11.70;99.90;;;;;;5112781;28;20750;-88
2020/12/14 10:01:29;;;;;;;6.03;2.90;;;11.60;99.90;;;;;;5112689;28;20177;-87
2020/12/14 10:03:56;;;;;;;3.63;2.93;;;11.50;99.90;;;;;;5114130;28;20181;-87
2020/12/14 10:06:22;;;;;;;4.40;3.03;;;11.50;99.90;;;;;;5113463;28;20207;-87
2020/12/14 10:08:48;;;;;;;5.60;3.30;;;11.50;99.90;;;;;;5112927;28;20363;-88
2020/12/14 10:11:14;;;;;;;5.67;3.00;;;11.50;99.90;;;;;;5095705;28;20174;-86
2020/12/14 10:13:40;;;;;;;4.30;2.83;;;11.40;99.90;;;;;;5095629;28;20561;-86
2020/12/14 10:16:06;;;;;;;4.40;3.00;;;11.40;99.90;;;;;;5112943;28;20173;-87
2020/12/14 10:18:32;;;;;;;7.13;3.10;;;11.50;99.90;;;;;;5095594;28;20170;-86
2020/12/14 10:21:02;;;;;;;5.20;3.00;;;11.60;99.90;;;;;;5095197;28;20178;-87
2020/12/14 10:23:28;;;;;;;6.27;3.13;;;11.60;99.90;;;;;;5112424;28;20240;-87
2020/12/14 10:25:54;;;;;;;5.20;3.10;;;11.70;99.90;;;;;;5112438;28;20177;-86
2020/12/14 10:28:19;;;;;;;4.67;2.80;;;11.80;99.90;;;;;;5095343;28;20645;-87
2020/12/14 10:30:45;;;;;;;4.70;2.80;;;11.90;99.90;;;;;;5094058;28;20189;-86
2020/12/14 10:33:11;;;;;;;5.47;2.80;;;12.00;99.90;;;;;;5095382;28;20593;-87
2020/12/14 10:35:36;;;;;;;4.97;2.90;;;12.20;99.90;;;;;;5111789;28;20209;-86
2020/12/14 10:38:02;;;;;;;6.73;2.80;;;12.30;99.90;;;;;;5089139;28;20692;-86
2020/12/14 10:40:28;;;;;;;5.17;2.70;;;12.30;99.90;;;;;;5105955;28;20433;-86
2020/12/14 10:42:55;;;;;;;4.53;2.87;;;12.40;99.90;;;;;;5091305;28;20189;-87
2020/12/14 10:45:21;;;;;;;3.70;2.60;;;12.40;99.90;;;;;;5091333;28;20182;-84
2020/12/14 10:47:46;;;;;;;5.10;3.00;;;12.30;99.90;;;;;;5093834;28;20179;-84
2020/12/14 10:50:17;;;;;;;3.60;2.50;;;12.40;99.90;;;;;;5064966;28;20220;-84
2020/12/14 10:52:44;;;;;;;6.80;3.00;;;12.60;99.90;;;;;;5092586;28;20170;-84
2020/12/14 10:55:09;;;;;;;5.87;2.60;;;12.50;99.90;;;;;;5064886;28;20631;-85
2020/12/14 10:57:36;;;;;;;4.73;2.70;;;12.50;99.90;;;;;;5112938;28;20222;-87
2020/12/14 11:00:06;;;;;;;5.30;2.73;;;12.70;99.90;;;;;;5094832;28;20288;-87
2020/12/14 11:02:39;;;;;;;8.17;3.23;;;12.70;99.90;;;;;;5110551;28;20173;-87
2020/12/14 11:05:09;;;;;;;7.30;3.13;;;12.50;99.90;;;;;;5081200;28;20216;-86
2020/12/14 11:07:35;;;;;;;4.03;2.67;;;12.60;99.90;;;;;;5106761;28;20209;-87
2020/12/14 11:10:03;;;;;;;6.83;2.43;;;12.30;99.90;;;;;;5112304;28;20587;-87
2020/12/14 11:12:28;;;;;;;3.87;2.60;;;12.30;99.90;;;;;;5109417;28;20217;-86
2020/12/14 11:14:54;;;;;;;6.90;2.73;;;12.20;99.90;;;;;;5112432;28;20189;-86
2020/12/14 11:17:21;;;;;;;5.33;3.00;;;12.30;99.90;;;;;;5097560;28;20189;-86
2020/12/14 11:19:46;;;;;;;5.73;3.07;;;12.20;99.90;;;;;;5113296;28;20212;-86
2020/12/14 11:22:12;;;;;;;6.83;3.17;;;12.30;99.90;;;;;;5112275;28;20252;-87
2020/12/14 11:24:37;;;;;;;6.73;2.67;;;12.30;99.90;;;;;;5112463;28;20178;-88
2020/12/14 11:27:03;;;;;;;5.27;2.93;;;12.30;99.90;;;;;;5074993;28;20543;-86
2020/12/14 11:29:30;;;;;;;6.27;3.03;;;12.30;99.90;;;;;;5103354;28;20174;-86
2020/12/14 11:31:56;;;;;;;6.17;3.30;;;12.20;99.90;;;;;;5095347;28;20207;-88
2020/12/14 11:34:21;;;;;;;5.03;3.07;;;12.20;99.90;;;;;;5113234;28;20178;-87
2020/12/14 11:36:48;;;;;;;4.40;3.33;;;12.30;99.90;;;;;;5113049;28;20178;-85
2020/12/14 11:39:13;;;;;;;6.57;4.07;;;12.30;99.90;;;;;;5105374;28;20674;-88
2020/12/14 11:41:39;;;;;;;9.30;3.50;;;12.40;99.90;;;;;;5077078;28;20205;-85
2020/12/14 11:44:05;;;;;;;5.27;3.77;;;12.30;99.90;;;;;;5109898;28;20257;-85
2020/12/14 11:46:31;;;;;;;5.47;3.40;;;12.20;99.90;;;;;;5092987;28;20185;-87
2020/12/14 11:48:56;;;;;;;9.87;3.67;;;12.20;99.90;;;;;;5048431;28;20186;-83
2020/12/14 11:51:22;;;;;;;5.33;3.40;;;12.10;99.90;;;;;;5079848;28;20686;-86
2020/12/14 11:53:49;;;;;;;7.60;3.57;;;12.10;99.90;;;;;;5090654;28;20219;-85
2020/12/14 11:56:15;;;;;;;8.63;3.57;;;12.10;99.90;;;;;;5107130;28;20192;-86
2020/12/14 11:58:41;;;;;;;6.50;3.77;;;12.10;99.90;;;;;;5073169;28;20194;-87
2020/12/14 12:01:07;;;;;;;6.83;3.37;;;11.90;99.90;;;;;;5110014;28;20183;-85
2020/12/14 12:03:32;;;;;;;6.77;3.87;;;11.90;99.90;;;;;;5090735;28;20261;-85
2020/12/14 12:05:59;;;;;;;7.97;3.73;;;11.90;99.90;;;;;;5103113;28;20521;-86
2020/12/14 12:08:25;;;;;;;6.47;3.90;;;12.10;99.90;;;;;;5103515;28;20623;-84
2020/12/14 12:10:51;;;;;;;4.80;4.00;;;12.10;99.90;;;;;;5084342;28;20201;-86
2020/12/14 12:13:18;;;;;;;6.97;3.97;;;12.10;99.90;;;;;;5071894;28;20194;-87
2020/12/14 12:15:44;;;;;;;5.30;3.60;;;12.10;99.90;;;;;;5090441;28;20186;-85
2020/12/14 12:18:10;;;;;;;8.43;4.10;;;12.20;99.90;;;;;;5089642;28;20206;-86
2020/12/14 12:20:35;;;;;;;8.60;4.57;;;12.20;99.90;;;;;;5108468;28;20193;-85
2020/12/14 12:23:04;;;;;;;9.53;3.97;;;12.10;99.90;;;;;;5103115;28;20189;-86
2020/12/14 12:25:30;;;;;;;9.00;4.47;;;12.10;99.90;;;;;;5109975;28;20231;-84
2020/12/14 12:27:56;;;;;;;9.17;4.00;;;12.20;99.90;;;;;;5073613;28;20418;-86
2020/12/14 12:30:22;;;;;;;10.70;4.80;;;12.20;99.90;;;;;;5089444;28;20276;-86
2020/12/14 12:32:47;;;;;;;8.10;4.27;;;12.10;99.90;;;;;;5104194;28;20190;-85
2020/12/14 12:35:13;;;;;;;7.80;3.80;;;12.20;99.90;;;;;;5075434;28;20193;-82
2020/12/14 12:37:39;;;;;;;7.10;4.10;;;12.00;99.90;;;;;;5092379;28;20592;-83
2020/12/14 12:40:08;;;;;;;5.83;3.60;;;12.00;99.90;;;;;;5101261;28;20202;-87
2020/12/14 12:42:35;;;;;;;5.87;4.30;;;11.90;99.90;;;;;;5106796;28;20185;-85
2020/12/14 12:45:01;;;;;;;8.00;4.00;;;11.80;99.90;;;;;;5091857;28;20178;-85
2020/12/14 12:47:27;;;;;;;6.93;4.23;;;11.70;99.90;;;;;;5108764;28;20186;-85
2020/12/14 12:49:53;;;;;;;9.00;4.63;;;11.50;99.90;;;;;;5113178;28;20189;-84
2020/12/14 12:52:19;;;;;;;7.43;4.30;;;11.60;99.90;;;;;;5114430;28;20189;-86
2020/12/14 12:54:45;;;;;;;8.20;4.57;;;11.50;99.90;;;;;;5115013;28;20192;-83
2020/12/14 12:57:11;;;;;;;7.77;4.83;;;11.50;99.90;;;;;;5079580;28;20309;-84